Fall River, Massachusetts
Current Conditions -  °F | °C
As of 4:53 PM on Saturday 25 Oct 2014 (Local Time) from KEWB Reporting Station
Clear Clear  
Wind Chill: 62°   Ceiling: Unl
Heat Index: 62°   Visibility: 10mi
Dew Point: 46°   Wind: 10mph
Humidity: 56%   Direction: 220°SW
Pressure: 29.6"   Gusts: NA
Location:  41.7°N, 71.14°W
Report Text: KEWB 252053Z 22009KT 10SM CLR 17/08 A2960 RMK AO2 SLP024 T01670078 56018
Loading
Personal Weather Stations






























Interactive Weather Map
Tropical Storm Tracking
New forecast layout! Learn more

10-Day Weather Forecast

Advertisements
Track Severe Weather on mobile